Flight Track Log - Related Links

Times and Time Zones

All times are in EST time to prevent confusion due to time zone crossing. See the EJA831 flight status page for this flight to view local times or setup timezone preferences in your user account.

Time Position Orientation Groundspeed Altitude Reporting Facility
EST Latitude Longitude Course Direction KTS MPH feet Rate Location/Type
Fri 10:29:30 PM 35.0778 -85.2900 255° West 253 291 7,700  Level Atlanta Center
Fri 10:30:30 PM 35.0436 -85.3631 240° Southwest 258 297 10,000 2,625 Climbing Atlanta Center
Fri 10:32:26 PM 34.9875 -85.4775 239° Southwest 222 255 15,400 2,795 Climbing Memphis Center
Fri 10:33:00 PM 34.9634 -85.7213 242° Southwest  Level Estimated
Fri 10:33:26 PM 34.9586 -85.5375 240° Southwest 210 242 18,200  Level Memphis Center
Fri 10:34:27 PM 34.9281 -85.6017 240° Southwest 215 247 20,600 2,311 Climbing Memphis Center
Fri 10:35:28 PM 34.8867 -85.6889 240° Southwest 242 278 22,900 1,884 Climbing Memphis Center
Fri 10:36:28 PM 34.8483 -85.7672 239° Southwest 261 300 24,400 1,525 Climbing Memphis Center
Fri 10:37:30 PM 34.8119 -85.8503 242° Southwest 274 315 26,000 1,525 Climbing Atlanta Center
Fri 10:38:30 PM 34.7689 -85.9328 238° Southwest 279 321 27,500 1,500 Climbing Atlanta Center
Fri 10:39:30 PM 34.7322 -86.0128 241° Southwest 279 321 29,000 1,500 Climbing Atlanta Center
Fri 10:40:30 PM 34.6911 -86.0950 239° Southwest 284 327 30,500 1,500 Climbing Atlanta Center
Fri 10:41:30 PM 34.6544 -86.1750 241° Southwest 284 327 32,000 1,450 Climbing Atlanta Center
Fri 10:42:30 PM 34.6133 -86.2572 239° Southwest 284 327 33,400 1,000 Climbing Atlanta Center
Fri 10:43:30 PM 34.5742 -86.3394 240° Southwest 284 327 34,000 300 Climbing Atlanta Center
Fri 10:44:30 PM 34.5308 -86.4292 240° Southwest 295 339 34,000  Level Atlanta Center
Fri 10:45:30 PM 34.4831 -86.5208 238° Southwest 309 356 34,000  Level Atlanta Center
Fri 10:47:36 PM 34.3903 -86.7139 240° Southwest 327 376 34,000  Level Memphis Center
Fri 10:48:37 PM 34.3442 -86.8072 239° Southwest 324 373 34,000  Level Memphis Center
Fri 10:49:38 PM 34.2983 -86.9000 239° Southwest 323 372 34,000  Level Memphis Center
Fri 10:50:38 PM 34.2525 -86.9950 240° Southwest 324 373 34,000  Level Memphis Center
Fri 10:51:39 PM 34.2056 -87.0886 239° Southwest 324 373 34,000  Level Memphis Center
Fri 10:52:40 PM 34.1583 -87.1822 239° Southwest 325 374 34,000  Level Memphis Center
Fri 10:53:40 PM 34.1097 -87.2811 239° Southwest 325 374 34,000  Level Memphis Center
Fri 10:54:41 PM 34.0617 -87.3761 239° Southwest 327 376 34,000  Level Memphis Center
Fri 10:55:42 PM 34.0175 -87.4667 240° Southwest 329 379 34,000  Level Memphis Center
Fri 10:56:43 PM 34.0042 -87.5767 262° West 333 383 34,000  Level Memphis Center
Fri 10:57:43 PM 33.9981 -87.6894 266° West 334 384 34,000  Level Memphis Center
Fri 10:58:44 PM 33.9925 -87.8011 267° West 334 384 34,000  Level Memphis Center
Fri 10:59:45 PM 33.9864 -87.9131 266° West 334 384 34,000  Level Memphis Center
Fri 11:00:45 PM 33.9803 -88.0242 266° West 333 383 34,000  Level Memphis Center
Fri 11:01:46 PM 33.9761 -88.1358 267° West 333 383 34,000  Level Memphis Center
Fri 11:02:47 PM 33.9692 -88.2467 266° West 333 383 34,000  Level Memphis Center
Fri 11:03:47 PM 33.9619 -88.3800 266° West 332 382 34,000  Level Memphis Center
Fri 11:04:48 PM 33.9558 -88.4897 266° West 330 380 34,000  Level Memphis Center
Fri 11:05:49 PM 33.9497 -88.6014 266° West 333 383 34,000  Level Memphis Center
Fri 11:06:49 PM 33.9428 -88.7103 266° West 329 379 34,000  Level Memphis Center
Fri 11:07:50 PM 33.9358 -88.8203 266° West 329 379 34,000  Level Memphis Center
Fri 11:08:51 PM 33.9303 -88.9258 266° West 328 377 34,000  Level Memphis Center
Fri 11:09:51 PM 33.9244 -89.0375 266° West 328 377 34,000  Level Memphis Center
Fri 11:10:52 PM 33.9172 -89.1489 266° West 330 380 34,000  Level Memphis Center
Fri 11:11:53 PM 33.9100 -89.2594 266° West 329 379 34,000  Level Memphis Center
Fri 11:12:53 PM 33.9031 -89.3697 266° West 327 376 34,000  Level Memphis Center
Fri 11:13:54 PM 33.8961 -89.4817 266° West 329 379 34,000  Level Memphis Center
Fri 11:14:55 PM 33.8892 -89.5933 266° West 331 381 34,000  Level Memphis Center
Fri 11:15:55 PM 33.8817 -89.7042 265° West 329 379 34,000  Level Memphis Center
Fri 11:16:56 PM 33.8739 -89.8144 265° West 328 377 34,000  Level Memphis Center
Fri 11:17:57 PM 33.8669 -89.9239 266° West 327 376 34,000  Level Memphis Center
Fri 11:18:57 PM 33.8597 -90.0344 266° West 327 376 34,000  Level Memphis Center
Fri 11:19:58 PM 33.8519 -90.1450 265° West 327 376 34,000  Level Memphis Center
Fri 11:20:59 PM 33.8436 -90.2539 265° West 326 375 34,000  Level Memphis Center
Fri 11:21:59 PM 33.8367 -90.3639 266° West 325 374 34,000  Level Memphis Center
Fri 11:23:00 PM 33.8281 -90.4742 265° West 327 376 34,000  Level Memphis Center
Fri 11:24:01 PM 33.8206 -90.5825 265° West 324 373 34,000  Level Memphis Center
Fri 11:25:02 PM 33.8114 -90.6961 264° West 326 375 34,000  Level Memphis Center
Fri 11:26:02 PM 33.8039 -90.8036 265° West 325 374 34,000  Level Memphis Center
Fri 11:27:03 PM 33.7958 -90.9100 265° West 324 373 34,000  Level Memphis Center
Fri 11:28:04 PM 33.7875 -91.0181 265° West 325 374 34,000  Level Memphis Center
Fri 11:29:05 PM 33.7789 -91.1233 264° West 323 372 34,000  Level Memphis Center
Fri 11:30:05 PM 33.7706 -91.2297 265° West 322 371 34,000  Level Memphis Center
Fri 11:31:06 PM 33.7619 -91.3383 265° West 325 374 34,000  Level Memphis Center
Fri 11:32:07 PM 33.7550 -91.4464 266° West 327 376 34,000  Level Memphis Center
Fri 11:33:07 PM 33.7456 -91.5536 264° West 326 375 34,000  Level Memphis Center
Fri 11:34:08 PM 33.7353 -91.6606 263° West 324 373 34,000  Level Memphis Center
Fri 11:35:09 PM 33.7267 -91.7822 265° West 323 372 34,000  Level Memphis Center
Fri 11:36:10 PM 33.7167 -91.8894 264° West 323 372 34,000  Level Memphis Center
Fri 11:37:10 PM 33.7089 -91.9964 265° West 323 372 34,000  Level Memphis Center
Fri 11:38:11 PM 33.6989 -92.1036 264° West 324 373 34,000  Level Memphis Center
Fri 11:39:12 PM 33.6894 -92.2111 264° West 324 373 34,000  Level Memphis Center
Fri 11:40:13 PM 33.6792 -92.3186 263° West 325 374 34,000  Level Memphis Center
Fri 11:41:13 PM 33.6703 -92.4253 264° West 323 372 34,000  Level Memphis Center
Fri 11:42:14 PM 33.6603 -92.5328 264° West 325 374 34,000  Level Memphis Center
Fri 11:43:15 PM 33.6514 -92.6400 264° West 324 373 34,000  Level Memphis Center
Fri 11:44:16 PM 33.6422 -92.7469 264° West 324 373 34,000  Level Memphis Center
Fri 11:45:16 PM 33.6317 -92.8544 263° West 324 373 34,000  Level Memphis Center
Fri 11:46:17 PM 33.6219 -92.9608 264° West 323 372 34,000  Level Memphis Center
Fri 11:47:18 PM 33.6108 -93.0903 264° West 326 375 34,000  Level Memphis Center
Fri 11:48:19 PM 33.5997 -93.1975 263° West 325 374 34,000  Level Memphis Center
Fri 11:49:19 PM 33.5894 -93.3044 263° West 324 373 34,000  Level Memphis Center
Fri 11:50:20 PM 33.5792 -93.4103 263° West 323 372 34,000  Level Memphis Center
Fri 11:51:21 PM 33.5694 -93.5156 264° West 321 369 34,000  Level Memphis Center
Fri 11:52:22 PM 33.5592 -93.6211 263° West 321 369 34,000  Level Memphis Center
Fri 11:53:29 PM 33.5478 -93.7467 264° West 320 368 34,000  Level Fort Worth Center
Fri 11:54:29 PM 33.5378 -93.8508 263° West 321 369 34,000  Level Fort Worth Center
Fri 11:55:30 PM 33.5275 -93.9556 263° West 321 369 34,000  Level Fort Worth Center
Fri 11:56:30 PM 33.5178 -94.0597 264° West 320 368 34,000 -149 Level Fort Worth Center
Fri 11:57:31 PM 33.5033 -94.1631 261° West 319 367 33,700 -787 Descending Fort Worth Center
Fri 11:58:32 PM 33.4803 -94.2581 254° West 303 349 32,400 -1,339 Descending Fort Worth Center
Fri 11:59:32 PM 33.4578 -94.3569 255° West 309 356 31,000 -1,388 Descending Fort Worth Center
Sat 12:00:33 AM 33.4333 -94.4594 254° West 320 368 29,600 -1,388 Descending Fort Worth Center
Sat 12:01:33 AM 33.4092 -94.5631 254° West 326 375 28,200 -1,388 Descending Fort Worth Center
Sat 12:02:34 AM 33.3842 -94.6672 254° West 327 376 26,800 -1,388 Descending Fort Worth Center
Sat 12:03:34 AM 33.3597 -94.7739 255° West 335 386 25,400 -1,388 Descending Fort Worth Center
Sat 12:04:35 AM 33.3336 -94.8803 254° West 338 389 24,000 -1,388 Descending Fort Worth Center
Sat 12:05:35 AM 33.3072 -94.9853 253° West 331 381 22,600 -1,388 Descending Fort Worth Center
Sat 12:06:36 AM 33.2811 -95.0903 253° West 329 379 21,200 -1,525 Descending Fort Worth Center
Sat 12:07:37 AM 33.2536 -95.2172 256° West 332 382 19,500 -1,488 Descending Fort Worth Center
Sat 12:08:37 AM 33.2294 -95.3200 254° West 318 366 18,200 -1,140 Descending Fort Worth Center
Sat 12:09:38 AM 33.2036 -95.4233 253° West 326 375 17,200 -1,190 Descending Fort Worth Center
Sat 12:10:38 AM 33.1781 -95.5261 253° West 323 372 15,800 -1,388 Descending Fort Worth Center
Sat 12:11:39 AM 33.1517 -95.6317 253° West 318 366 14,400 -1,388 Descending Fort Worth Center
Sat 12:12:39 AM 33.1283 -95.7253 253° West 295 339 13,000 -1,388 Descending Fort Worth Center
Sat 12:13:40 AM 33.1058 -95.8156 253° West 290 334 11,600 -992 Descending Fort Worth Center
Sat 12:14:40 AM 33.0844 -95.9031 254° West 279 321 11,000 -298 Descending Fort Worth Center
Sat 12:15:41 AM 33.0625 -95.9925 254° West 283 326 11,000  Level Fort Worth Center
Sat 12:16:41 AM 33.0394 -96.0847 253° West 293 337 11,000  Level Fort Worth Center
Sat 12:17:42 AM 33.0172 -96.1767 254° West 290 334 11,000 -347 Level Fort Worth Center
Sat 12:18:42 AM 32.9950 -96.2650 253° West 282 325 10,300 -1,339 Descending Fort Worth Center
Sat 12:19:43 AM 32.9747 -96.3447 253° West 256 295 8,300 -2,033 Descending Fort Worth Center
Sat 12:20:43 AM 32.9536 -96.4292 253° West 264 304 6,200 -1,934 Descending Fort Worth Center
Sat 12:21:44 AM 32.9064 -96.5003 232° Southwest 273 314 4,400 -1,190 Descending Fort Worth Center
Sat 12:22:44 AM 32.8581 -96.5722 231° Southwest 275 316 3,800 -893 Descending Fort Worth Center
Sat 12:23:45 AM 32.8133 -96.6414 232° Southwest 265 305 2,600 -645 Descending Fort Worth Center
Sat 12:24:45 AM 32.7700 -96.7056 231° Southwest 234 269 2,500 -50 Descending Fort Worth Center
Sat 12:25:46 AM 32.7664 -96.7650 266° West 179 206 2,500 -323 Level Fort Worth Center
Sat 12:26:55 AM 32.8000 -96.8000 319° Northwest 105 121 1,800 -627 Descending Dallas / Fort Worth TRACON
Sat 12:28:00 AM 32.8167 -96.8167 320° Northwest 100 115 1,100 -646 Descending Dallas / Fort Worth TRACON
Sat 12:30:00 AM 32.8333 -96.8500 257° West  Level FlightAware Approximate
Sat 12:37:00 AM 32.8471 -96.8518 257° West  Level Estimated

Login

Don't have an account? Register now (free) for customized features, flight alerts, and more!